sensor_id;sensor_type;location;lat;lon;timestamp;pressure;altitude;pressure_sealevel;temperature;humidity
56894;BME280;43392;50.078;13.704;2023-04-06T00:02:24;97333.31;;;0.62;67.26
56894;BME280;43392;50.078;13.704;2023-04-06T00:04:50;97324.56;;;0.61;67.18
56894;BME280;43392;50.078;13.704;2023-04-06T00:07:18;97326.41;;;0.61;67.09
56894;BME280;43392;50.078;13.704;2023-04-06T00:09:45;97328.63;;;0.64;67.55
56894;BME280;43392;50.078;13.704;2023-04-06T00:12:11;97325.41;;;0.62;67.46
56894;BME280;43392;50.078;13.704;2023-04-06T00:14:38;97325.59;;;0.60;67.33
56894;BME280;43392;50.078;13.704;2023-04-06T00:17:05;97324.78;;;0.53;67.42
56894;BME280;43392;50.078;13.704;2023-04-06T00:19:32;97328.63;;;0.44;67.49
56894;BME280;43392;50.078;13.704;2023-04-06T00:21:58;97319.53;;;0.34;67.66
56894;BME280;43392;50.078;13.704;2023-04-06T00:24:28;97325.19;;;0.24;67.98
56894;BME280;43392;50.078;13.704;2023-04-06T00:26:55;97323.13;;;0.20;68.21
56894;BME280;43392;50.078;13.704;2023-04-06T00:29:21;97320.09;;;0.16;68.57
56894;BME280;43392;50.078;13.704;2023-04-06T00:31:48;97330.81;;;0.15;68.27
56894;BME280;43392;50.078;13.704;2023-04-06T00:34:15;97324.56;;;0.16;68.15
56894;BME280;43392;50.078;13.704;2023-04-06T00:36:41;97324.97;;;0.19;68.47
56894;BME280;43392;50.078;13.704;2023-04-06T00:39:08;97326.41;;;0.22;68.14
56894;BME280;43392;50.078;13.704;2023-04-06T00:41:36;97325.59;;;0.21;68.00
56894;BME280;43392;50.078;13.704;2023-04-06T00:44:03;97313.22;;;0.22;68.00
56894;BME280;43392;50.078;13.704;2023-04-06T00:46:29;97315.84;;;0.22;67.82
56894;BME280;43392;50.078;13.704;2023-04-06T00:48:56;97320.72;;;0.25;67.54
56894;BME280;43392;50.078;13.704;2023-04-06T00:51:23;97314.44;;;0.19;67.43
56894;BME280;43392;50.078;13.704;2023-04-06T00:53:50;97323.34;;;0.25;67.44
56894;BME280;43392;50.078;13.704;2023-04-06T00:56:17;97319.72;;;0.26;67.29
56894;BME280;43392;50.078;13.704;2023-04-06T00:58:45;97314.22;;;0.27;67.48
56894;BME280;43392;50.078;13.704;2023-04-06T01:01:11;97313.63;;;0.25;67.28
56894;BME280;43392;50.078;13.704;2023-04-06T01:03:38;97314.22;;;0.21;67.30
56894;BME280;43392;50.078;13.704;2023-04-06T01:06:05;97315.22;;;0.20;67.81
56894;BME280;43392;50.078;13.704;2023-04-06T01:08:31;97310.16;;;0.18;67.90
56894;BME280;43392;50.078;13.704;2023-04-06T01:10:59;97319.50;;;0.14;67.80
56894;BME280;43392;50.078;13.704;2023-04-06T01:13:26;97319.47;;;0.08;68.79
56894;BME280;43392;50.078;13.704;2023-04-06T01:15:54;97294.72;;;-0.05;69.91
56894;BME280;43392;50.078;13.704;2023-04-06T01:18:25;97308.31;;;-0.01;69.95
56894;BME280;43392;50.078;13.704;2023-04-06T01:20:52;97318.63;;;-0.06;70.27
56894;BME280;43392;50.078;13.704;2023-04-06T01:23:20;97314.56;;;-0.09;70.48
56894;BME280;43392;50.078;13.704;2023-04-06T01:25:46;97315.56;;;-0.10;70.57
56894;BME280;43392;50.078;13.704;2023-04-06T01:28:13;97316.00;;;-0.13;70.32
56894;BME280;43392;50.078;13.704;2023-04-06T01:30:39;97315.78;;;-0.18;70.39
56894;BME280;43392;50.078;13.704;2023-04-06T01:33:06;97306.63;;;-0.22;71.09
56894;BME280;43392;50.078;13.704;2023-04-06T01:35:33;97301.34;;;-0.22;71.12
56894;BME280;43392;50.078;13.704;2023-04-06T01:38:00;97294.66;;;-0.24;71.21
56894;BME280;43392;50.078;13.704;2023-04-06T01:40:28;97304.19;;;-0.30;71.02
56894;BME280;43392;50.078;13.704;2023-04-06T01:42:55;97299.69;;;-0.36;71.54
56894;BME280;43392;50.078;13.704;2023-04-06T01:45:21;97302.94;;;-0.40;71.82
56894;BME280;43392;50.078;13.704;2023-04-06T01:47:48;97302.94;;;-0.47;71.71
56894;BME280;43392;50.078;13.704;2023-04-06T01:50:15;97301.66;;;-0.57;72.17
56894;BME280;43392;50.078;13.704;2023-04-06T01:52:41;97306.09;;;-0.58;72.75
56894;BME280;43392;50.078;13.704;2023-04-06T01:55:08;97302.28;;;-0.55;72.39
56894;BME280;43392;50.078;13.704;2023-04-06T01:57:36;97302.28;;;-0.55;72.62
56894;BME280;43392;50.078;13.704;2023-04-06T02:00:03;97296.81;;;-0.54;72.27
56894;BME280;43392;50.078;13.704;2023-04-06T02:02:30;97304.34;;;-0.51;72.55
56894;BME280;43392;50.078;13.704;2023-04-06T02:04:57;97305.94;;;-0.50;72.33
56894;BME280;43392;50.078;13.704;2023-04-06T02:07:23;97293.59;;;-0.49;72.82
56894;BME280;43392;50.078;13.704;2023-04-06T02:09:53;97287.72;;;-0.51;72.58
56894;BME280;43392;50.078;13.704;2023-04-06T02:12:20;97298.88;;;-0.49;72.16
56894;BME280;43392;50.078;13.704;2023-04-06T02:14:48;97300.47;;;-0.48;72.04
56894;BME280;43392;50.078;13.704;2023-04-06T02:17:14;97296.03;;;-0.48;72.46
56894;BME280;43392;50.078;13.704;2023-04-06T02:19:41;97299.25;;;-0.46;71.91
56894;BME280;43392;50.078;13.704;2023-04-06T02:22:08;97288.13;;;-0.48;71.86
56894;BME280;43392;50.078;13.704;2023-04-06T02:24:36;97294.22;;;-0.41;72.05
56894;BME280;43392;50.078;13.704;2023-04-06T02:27:02;97281.47;;;-0.44;71.45
56894;BME280;43392;50.078;13.704;2023-04-06T02:29:29;97286.31;;;-0.41;71.75
56894;BME280;43392;50.078;13.704;2023-04-06T02:31:57;97288.16;;;-0.41;71.79
56894;BME280;43392;50.078;13.704;2023-04-06T02:34:23;97277.03;;;-0.37;71.68
56894;BME280;43392;50.078;13.704;2023-04-06T02:36:50;97288.34;;;-0.36;71.39
56894;BME280;43392;50.078;13.704;2023-04-06T02:39:17;97287.94;;;-0.40;70.95
56894;BME280;43392;50.078;13.704;2023-04-06T02:41:43;97290.19;;;-0.37;70.75
56894;BME280;43392;50.078;13.704;2023-04-06T02:44:10;97295.41;;;-0.43;70.81
56894;BME280;43392;50.078;13.704;2023-04-06T02:46:37;97282.63;;;-0.53;70.83
56894;BME280;43392;50.078;13.704;2023-04-06T02:49:05;97289.69;;;-0.60;71.83
56894;BME280;43392;50.078;13.704;2023-04-06T02:51:31;97281.41;;;-0.63;71.65
56894;BME280;43392;50.078;13.704;2023-04-06T02:53:58;97291.31;;;-0.65;71.95
56894;BME280;43392;50.078;13.704;2023-04-06T02:56:24;97296.34;;;-0.71;72.46
56894;BME280;43392;50.078;13.704;2023-04-06T02:58:51;97301.41;;;-0.76;71.82
56894;BME280;43392;50.078;13.704;2023-04-06T03:01:18;97297.72;;;-0.81;72.58
56894;BME280;43392;50.078;13.704;2023-04-06T03:03:45;97293.66;;;-0.84;72.68
56894;BME280;43392;50.078;13.704;2023-04-06T03:06:13;97270.72;;;-0.96;73.03
56894;BME280;43392;50.078;13.704;2023-04-06T03:08:40;97298.47;;;-0.94;73.15
56894;BME280;43392;50.078;13.704;2023-04-06T03:11:06;97288.75;;;-0.93;73.13
56894;BME280;43392;50.078;13.704;2023-04-06T03:13:33;97294.00;;;-0.93;73.00
56894;BME280;43392;50.078;13.704;2023-04-06T03:15:59;97291.19;;;-0.92;73.21
56894;BME280;43392;50.078;13.704;2023-04-06T03:18:26;97297.47;;;-0.93;73.35
56894;BME280;43392;50.078;13.704;2023-04-06T03:20:53;97295.00;;;-0.94;73.08
56894;BME280;43392;50.078;13.704;2023-04-06T03:23:21;97295.00;;;-0.94;73.01
56894;BME280;43392;50.078;13.704;2023-04-06T03:25:48;97285.88;;;-0.98;73.04
56894;BME280;43392;50.078;13.704;2023-04-06T03:28:15;97294.84;;;-0.93;73.44
56894;BME280;43392;50.078;13.704;2023-04-06T03:30:42;97291.34;;;-1.00;72.92
56894;BME280;43392;50.078;13.704;2023-04-06T03:33:08;97284.22;;;-1.06;73.22
56894;BME280;43392;50.078;13.704;2023-04-06T03:35:35;97293.75;;;-1.05;73.45
56894;BME280;43392;50.078;13.704;2023-04-06T03:38:02;97293.16;;;-1.07;73.52
56894;BME280;43392;50.078;13.704;2023-04-06T03:40:30;97297.75;;;-1.09;72.96
56894;BME280;43392;50.078;13.704;2023-04-06T03:42:56;97304.88;;;-1.09;73.04
56894;BME280;43392;50.078;13.704;2023-04-06T03:45:23;97298.78;;;-1.10;73.55
56894;BME280;43392;50.078;13.704;2023-04-06T03:47:50;97288.44;;;-1.11;73.21
56894;BME280;43392;50.078;13.704;2023-04-06T03:50:16;97295.31;;;-1.17;73.47
56894;BME280;43392;50.078;13.704;2023-04-06T03:52:43;97308.88;;;-1.13;73.36
56894;BME280;43392;50.078;13.704;2023-04-06T03:55:09;97308.09;;;-1.14;73.62
56894;BME280;43392;50.078;13.704;2023-04-06T03:57:37;97314.34;;;-1.15;73.92
56894;BME280;43392;50.078;13.704;2023-04-06T04:00:05;97309.91;;;-1.14;73.58
56894;BME280;43392;50.078;13.704;2023-04-06T04:02:32;97320.59;;;-1.16;73.65
56894;BME280;43392;50.078;13.704;2023-04-06T04:04:58;97316.28;;;-1.23;73.29
56894;BME280;43392;50.078;13.704;2023-04-06T04:07:25;97312.44;;;-1.27;73.70
56894;BME280;43392;50.078;13.704;2023-04-06T04:09:52;97308.19;;;-1.28;73.82
56894;BME280;43392;50.078;13.704;2023-04-06T04:12:18;97312.63;;;-1.29;74.03
56894;BME280;43392;50.078;13.704;2023-04-06T04:14:46;97312.63;;;-1.29;73.62
56894;BME280;43392;50.078;13.704;2023-04-06T04:17:13;97312.44;;;-1.27;73.69
56894;BME280;43392;50.078;13.704;2023-04-06T04:19:40;97308.81;;;-1.26;74.05
56894;BME280;43392;50.078;13.704;2023-04-06T04:22:06;97315.06;;;-1.27;73.27
56894;BME280;43392;50.078;13.704;2023-04-06T04:24:33;97322.97;;;-1.27;73.72
56894;BME280;43392;50.078;13.704;2023-04-06T04:27:00;97309.94;;;0.65;96.00
56894;BME280;43392;50.078;13.704;2023-04-06T04:29:27;97311.78;;;2.24;86.74
56894;BME280;43392;50.078;13.704;2023-04-06T04:31:55;97315.16;;;2.07;70.78
56894;BME280;43392;50.078;13.704;2023-04-06T04:34:22;97323.22;;;1.36;68.47
56894;BME280;43392;50.078;13.704;2023-04-06T04:36:50;97320.09;;;0.68;68.60
56894;BME280;43392;50.078;13.704;2023-04-06T04:39:17;97330.25;;;0.19;69.19
56894;BME280;43392;50.078;13.704;2023-04-06T04:41:43;97322.06;;;-0.12;69.91
56894;BME280;43392;50.078;13.704;2023-04-06T04:44:10;97326.06;;;-0.36;70.70
56894;BME280;43392;50.078;13.704;2023-04-06T04:46:37;97336.16;;;-0.46;71.30
56894;BME280;43392;50.078;13.704;2023-04-06T04:49:05;97321.75;;;-0.50;71.70
56894;BME280;43392;50.078;13.704;2023-04-06T04:51:31;97330.09;;;-0.46;71.51
56894;BME280;43392;50.078;13.704;2023-04-06T04:53:59;97327.63;;;-0.48;71.13
56894;BME280;43392;50.078;13.704;2023-04-06T04:56:25;97334.91;;;-0.50;71.48
56894;BME280;43392;50.078;13.704;2023-04-06T04:58:52;97331.69;;;-0.52;71.66
56894;BME280;43392;50.078;13.704;2023-04-06T05:01:19;97330.69;;;-0.51;71.61
56894;BME280;43392;50.078;13.704;2023-04-06T05:03:46;97332.94;;;-0.41;71.50
56894;BME280;43392;50.078;13.704;2023-04-06T05:06:13;97331.94;;;-0.34;71.26
56894;BME280;43392;50.078;13.704;2023-04-06T05:08:40;97326.09;;;-0.29;71.29
56894;BME280;43392;50.078;13.704;2023-04-06T05:11:07;97339.06;;;-0.21;71.12
56894;BME280;43392;50.078;13.704;2023-04-06T05:13:34;97334.84;;;-0.16;71.39
56894;BME280;43392;50.078;13.704;2023-04-06T05:16:01;97334.03;;;-0.10;71.31
56894;BME280;43392;50.078;13.704;2023-04-06T05:18:27;97338.34;;;0.05;71.03
56894;BME280;43392;50.078;13.704;2023-04-06T05:20:54;97335.50;;;-0.01;70.71
56894;BME280;43392;50.078;13.704;2023-04-06T05:23:22;97335.28;;;-0.06;70.91
56894;BME280;43392;50.078;13.704;2023-04-06T05:25:49;97329.19;;;-0.13;70.66
56894;BME280;43392;50.078;13.704;2023-04-06T05:28:16;97340.72;;;-0.07;70.92
56894;BME280;43392;50.078;13.704;2023-04-06T05:30:43;97342.16;;;-0.05;70.75
56894;BME280;43392;50.078;13.704;2023-04-06T05:33:11;97339.13;;;-0.02;70.43
56894;BME280;43392;50.078;13.704;2023-04-06T05:35:37;97335.88;;;0.03;70.96
56894;BME280;43392;50.078;13.704;2023-04-06T05:38:07;97332.25;;;0.11;70.84
56894;BME280;43392;50.078;13.704;2023-04-06T05:40:35;97341.19;;;0.23;70.65
56894;BME280;43392;50.078;13.704;2023-04-06T05:43:02;97335.53;;;0.32;70.69
56894;BME280;43392;50.078;13.704;2023-04-06T05:45:28;97322.16;;;0.40;70.73
56894;BME280;43392;50.078;13.704;2023-04-06T05:47:55;97340.41;;;0.61;70.65
56894;BME280;43392;50.078;13.704;2023-04-06T05:50:21;97326.41;;;0.74;70.31
56894;BME280;43392;50.078;13.704;2023-04-06T05:52:48;97331.69;;;0.87;69.65
56894;BME280;43392;50.078;13.704;2023-04-06T05:55:15;97341.59;;;0.98;69.65
56894;BME280;43392;50.078;13.704;2023-04-06T05:57:43;97332.25;;;1.09;69.09
56894;BME280;43392;50.078;13.704;2023-04-06T06:00:11;97336.69;;;1.15;68.40
56894;BME280;43392;50.078;13.704;2023-04-06T06:02:37;97335.91;;;1.08;68.47
56894;BME280;43392;50.078;13.704;2023-04-06T06:05:05;97338.75;;;1.06;68.58
56894;BME280;43392;50.078;13.704;2023-04-06T06:07:31;97335.47;;;1.04;69.14
56894;BME280;43392;50.078;13.704;2023-04-06T06:09:58;97336.91;;;1.00;68.88
56894;BME280;43392;50.078;13.704;2023-04-06T06:12:25;97334.88;;;1.02;69.43
56894;BME280;43392;50.078;13.704;2023-04-06T06:14:53;97344.00;;;1.19;69.21
56894;BME280;43392;50.078;13.704;2023-04-06T06:17:20;97340.72;;;1.24;69.17
56894;BME280;43392;50.078;13.704;2023-04-06T06:19:47;97340.69;;;1.37;68.86
56894;BME280;43392;50.078;13.704;2023-04-06T06:22:14;97334.41;;;1.31;69.19
56894;BME280;43392;50.078;13.704;2023-04-06T06:24:40;97341.94;;;1.28;70.39
56894;BME280;43392;50.078;13.704;2023-04-06T06:27:07;97339.50;;;1.26;70.37
56894;BME280;43392;50.078;13.704;2023-04-06T06:29:34;97339.69;;;1.31;71.21
56894;BME280;43392;50.078;13.704;2023-04-06T06:32:02;97335.78;;;1.41;71.43
56894;BME280;43392;50.078;13.704;2023-04-06T06:34:28;97342.06;;;1.53;71.10
56894;BME280;43392;50.078;13.704;2023-04-06T06:36:55;97345.47;;;1.66;70.96
56894;BME280;43392;50.078;13.704;2023-04-06T06:39:21;97342.19;;;1.71;71.01
56894;BME280;43392;50.078;13.704;2023-04-06T06:41:48;97342.34;;;1.82;71.14
56894;BME280;43392;50.078;13.704;2023-04-06T06:44:15;97346.53;;;1.96;70.93
56894;BME280;43392;50.078;13.704;2023-04-06T06:46:42;97348.25;;;2.16;71.00
56894;BME280;43392;50.078;13.704;2023-04-06T06:49:10;97340.66;;;2.32;70.18
56894;BME280;43392;50.078;13.704;2023-04-06T06:51:37;97341.41;;;2.39;66.72
56894;BME280;43392;50.078;13.704;2023-04-06T06:54:04;97352.00;;;2.39;66.00
56894;BME280;43392;50.078;13.704;2023-04-06T06:56:30;97342.59;;;2.43;65.76
56894;BME280;43392;50.078;13.704;2023-04-06T06:58:57;97354.13;;;2.55;66.18
56894;BME280;43392;50.078;13.704;2023-04-06T07:01:24;97349.75;;;2.67;67.12
56894;BME280;43392;50.078;13.704;2023-04-06T07:03:50;97350.06;;;2.78;66.66
56894;BME280;43392;50.078;13.704;2023-04-06T07:06:18;97342.28;;;2.83;65.86
56894;BME280;43392;50.078;13.704;2023-04-06T07:08:45;97341.13;;;2.97;66.20
56894;BME280;43392;50.078;13.704;2023-04-06T07:11:11;97345.34;;;3.04;65.04
56894;BME280;43392;50.078;13.704;2023-04-06T07:13:38;97346.53;;;3.08;63.50
56894;BME280;43392;50.078;13.704;2023-04-06T07:16:04;97340.94;;;3.16;64.53
56894;BME280;43392;50.078;13.704;2023-04-06T07:18:31;97334.31;;;3.25;64.63
56894;BME280;43392;50.078;13.704;2023-04-06T07:20:58;97344.66;;;3.33;64.25
56894;BME280;43392;50.078;13.704;2023-04-06T07:23:26;97352.28;;;3.42;63.97
56894;BME280;43392;50.078;13.704;2023-04-06T07:25:52;97350.19;;;3.50;64.11
56894;BME280;43392;50.078;13.704;2023-04-06T07:28:19;97359.25;;;3.61;63.61
56894;BME280;43392;50.078;13.704;2023-04-06T07:30:47;97352.59;;;3.70;62.65
56894;BME280;43392;50.078;13.704;2023-04-06T07:33:14;97359.06;;;3.74;61.98
56894;BME280;43392;50.078;13.704;2023-04-06T07:35:40;97354.59;;;3.74;61.52
56894;BME280;43392;50.078;13.704;2023-04-06T07:38:07;97358.78;;;3.82;60.79
56894;BME280;43392;50.078;13.704;2023-04-06T07:40:35;97352.44;;;3.83;60.14
56894;BME280;43392;50.078;13.704;2023-04-06T07:43:01;97353.53;;;3.93;60.39
56894;BME280;43392;50.078;13.704;2023-04-06T07:45:28;97352.66;;;3.99;58.92
56894;BME280;43392;50.078;13.704;2023-04-06T07:47:55;97362.13;;;4.07;59.66
56894;BME280;43392;50.078;13.704;2023-04-06T07:50:22;97361.72;;;4.22;59.93
56894;BME280;43392;50.078;13.704;2023-04-06T07:52:48;97358.06;;;4.34;59.24
56894;BME280;43392;50.078;13.704;2023-04-06T07:55:15;97352.66;;;4.41;58.17
56894;BME280;43392;50.078;13.704;2023-04-06T07:57:43;97354.19;;;4.48;57.75
56894;BME280;43392;50.078;13.704;2023-04-06T08:00:10;97357.34;;;4.57;57.99
56894;BME280;43392;50.078;13.704;2023-04-06T08:02:37;97353.53;;;4.64;57.59
56894;BME280;43392;50.078;13.704;2023-04-06T08:05:04;97354.47;;;4.70;57.32
56894;BME280;43392;50.078;13.704;2023-04-06T08:07:31;97344.44;;;4.72;57.96
56894;BME280;43392;50.078;13.704;2023-04-06T08:09:57;97346.28;;;4.83;57.91
56894;BME280;43392;50.078;13.704;2023-04-06T08:12:25;97344.34;;;4.90;57.37
56894;BME280;43392;50.078;13.704;2023-04-06T08:14:53;97346.09;;;4.96;56.63
56894;BME280;43392;50.078;13.704;2023-04-06T08:17:19;97346.41;;;4.88;55.30
56894;BME280;43392;50.078;13.704;2023-04-06T08:19:46;97338.00;;;4.91;55.74
56894;BME280;43392;50.078;13.704;2023-04-06T08:22:12;97342.03;;;4.94;55.31
56894;BME280;43392;50.078;13.704;2023-04-06T08:24:39;97339.13;;;4.95;56.10
56894;BME280;43392;50.078;13.704;2023-04-06T08:27:06;97346.09;;;4.96;54.81
56894;BME280;43392;50.078;13.704;2023-04-06T08:29:32;97346.88;;;4.97;55.11
56894;BME280;43392;50.078;13.704;2023-04-06T08:32:00;97343.44;;;5.08;55.64
56894;BME280;43392;50.078;13.704;2023-04-06T08:34:30;97346.06;;;5.19;55.02
56894;BME280;43392;50.078;13.704;2023-04-06T08:36:57;97343.91;;;5.28;55.64
56894;BME280;43392;50.078;13.704;2023-04-06T08:39:24;97337.50;;;5.41;55.52
56894;BME280;43392;50.078;13.704;2023-04-06T08:41:52;97343.28;;;5.49;54.89
56894;BME280;43392;50.078;13.704;2023-04-06T08:44:22;97344.88;;;5.50;55.11
56894;BME280;43392;50.078;13.704;2023-04-06T08:46:49;97334.25;;;5.62;55.31
56894;BME280;43392;50.078;13.704;2023-04-06T08:49:19;97337.78;;;5.79;55.05
56894;BME280;43392;50.078;13.704;2023-04-06T08:51:47;97336.50;;;5.93;53.76
56894;BME280;43392;50.078;13.704;2023-04-06T08:54:13;97341.03;;;5.92;52.52
56894;BME280;43392;50.078;13.704;2023-04-06T08:56:40;97328.44;;;5.88;51.66
56894;BME280;43392;50.078;13.704;2023-04-06T08:59:08;97342.06;;;5.80;51.64
56894;BME280;43392;50.078;13.704;2023-04-06T09:01:39;97339.63;;;5.90;51.58
56894;BME280;43392;50.078;13.704;2023-04-06T09:04:07;97342.97;;;5.97;50.40
56894;BME280;43392;50.078;13.704;2023-04-06T09:06:37;97330.88;;;6.06;49.89
56894;BME280;43392;50.078;13.704;2023-04-06T09:09:05;97338.81;;;6.18;49.83
56894;BME280;43392;50.078;13.704;2023-04-06T09:11:43;97346.25;;;6.44;50.85
56894;BME280;43392;50.078;13.704;2023-04-06T09:14:10;97331.31;;;6.59;48.94
56894;BME280;43392;50.078;13.704;2023-04-06T09:16:39;97335.88;;;6.76;48.87
56894;BME280;43392;50.078;13.704;2023-04-06T09:19:06;97333.44;;;6.91;48.25
56894;BME280;43392;50.078;13.704;2023-04-06T09:21:33;97329.38;;;7.05;48.46
56894;BME280;43392;50.078;13.704;2023-04-06T09:24:03;97333.44;;;7.24;48.03
56894;BME280;43392;50.078;13.704;2023-04-06T09:26:30;97335.66;;;7.32;44.69
56894;BME280;43392;50.078;13.704;2023-04-06T09:28:59;97325.59;;;7.01;42.98
56894;BME280;43392;50.078;13.704;2023-04-06T09:31:27;97338.59;;;6.81;41.18
56894;BME280;43392;50.078;13.704;2023-04-06T09:33:56;97337.13;;;6.56;39.50
56894;BME280;43392;50.078;13.704;2023-04-06T09:36:29;97336.31;;;6.39;40.17
56894;BME280;43392;50.078;13.704;2023-04-06T09:38:58;97330.28;;;6.44;40.70
56894;BME280;43392;50.078;13.704;2023-04-06T09:41:28;97327.91;;;6.47;41.66
56894;BME280;43392;50.078;13.704;2023-04-06T09:44:05;97327.69;;;6.49;42.63
56894;BME280;43392;50.078;13.704;2023-04-06T09:46:34;97326.63;;;6.50;42.82
56894;BME280;43392;50.078;13.704;2023-04-06T09:49:01;97318.16;;;6.53;42.42
56894;BME280;43392;50.078;13.704;2023-04-06T09:51:31;97326.72;;;6.55;43.17
56894;BME280;43392;50.078;13.704;2023-04-06T09:53:59;97331.31;;;6.59;42.87
56894;BME280;43392;50.078;13.704;2023-04-06T09:56:31;97316.97;;;6.60;43.38
56894;BME280;43392;50.078;13.704;2023-04-06T09:59:02;97326.25;;;6.75;44.15
56894;BME280;43392;50.078;13.704;2023-04-06T10:01:33;97326.44;;;6.85;45.09
56894;BME280;43392;50.078;13.704;2023-04-06T10:04:04;97322.56;;;6.92;44.70
56894;BME280;43392;50.078;13.704;2023-04-06T10:06:34;97317.03;;;6.99;44.85
56894;BME280;43392;50.078;13.704;2023-04-06T10:09:02;97318.72;;;7.05;43.41
56894;BME280;43392;50.078;13.704;2023-04-06T10:11:31;97314.94;;;7.01;43.81
56894;BME280;43392;50.078;13.704;2023-04-06T10:13:58;97323.03;;;6.89;42.04
56894;BME280;43392;50.078;13.704;2023-04-06T10:16:25;97319.16;;;6.80;43.14
56894;BME280;43392;50.078;13.704;2023-04-06T10:18:57;97323.41;;;6.81;43.74
56894;BME280;43392;50.078;13.704;2023-04-06T10:21:25;97325.28;;;6.81;42.60
56894;BME280;43392;50.078;13.704;2023-04-06T10:23:57;97319.16;;;6.80;44.07
56894;BME280;43392;50.078;13.704;2023-04-06T10:26:25;97313.97;;;6.74;42.71
56894;BME280;43392;50.078;13.704;2023-04-06T10:28:53;97314.38;;;6.49;41.65
56894;BME280;43392;50.078;13.704;2023-04-06T10:31:27;97319.34;;;6.29;43.09
56894;BME280;43392;50.078;13.704;2023-04-06T10:33:54;97315.13;;;6.61;41.59
56894;BME280;43392;50.078;13.704;2023-04-06T10:36:22;97308.06;;;6.88;42.29
56894;BME280;43392;50.078;13.704;2023-04-06T10:38:54;97299.81;;;7.23;42.35
56894;BME280;43392;50.078;13.704;2023-04-06T10:41:21;97304.91;;;7.46;41.78
56894;BME280;43392;50.078;13.704;2023-04-06T10:43:56;97296.88;;;7.63;40.98
56894;BME280;43392;50.078;13.704;2023-04-06T10:46:25;97295.66;;;7.75;41.51
56894;BME280;43392;50.078;13.704;2023-04-06T10:48:51;97302.00;;;7.91;40.95
56894;BME280;43392;50.078;13.704;2023-04-06T10:51:19;97297.06;;;8.04;40.94
56894;BME280;43392;50.078;13.704;2023-04-06T10:53:53;97298.00;;;8.15;40.51
56894;BME280;43392;50.078;13.704;2023-04-06T10:56:22;97299.91;;;8.20;39.87
56894;BME280;43392;50.078;13.704;2023-04-06T10:58:52;97291.50;;;8.28;39.94
56894;BME280;43392;50.078;13.704;2023-04-06T11:01:23;97284.75;;;8.25;36.98
56894;BME280;43392;50.078;13.704;2023-04-06T11:03:52;97287.50;;;8.30;37.86
56894;BME280;43392;50.078;13.704;2023-04-06T11:06:20;97281.59;;;8.55;39.74
56894;BME280;43392;50.078;13.704;2023-04-06T11:08:47;97276.63;;;8.68;37.54
56894;BME280;43392;50.078;13.704;2023-04-06T11:11:15;97279.56;;;8.67;36.98
56894;BME280;43392;50.078;13.704;2023-04-06T11:13:45;97281.78;;;8.48;36.26
56894;BME280;43392;50.078;13.704;2023-04-06T11:16:13;97287.88;;;8.44;37.77
56894;BME280;43392;50.078;13.704;2023-04-06T11:18:49;97276.59;;;8.37;37.76
56894;BME280;43392;50.078;13.704;2023-04-06T11:21:15;97279.19;;;8.27;38.32
56894;BME280;43392;50.078;13.704;2023-04-06T11:23:42;97282.78;;;8.16;38.23
56894;BME280;43392;50.078;13.704;2023-04-06T11:26:11;97264.91;;;7.94;38.16
56894;BME280;43392;50.078;13.704;2023-04-06T11:28:38;97276.53;;;8.05;38.57
56894;BME280;43392;50.078;13.704;2023-04-06T11:31:05;97268.16;;;7.96;38.45
56894;BME280;43392;50.078;13.704;2023-04-06T11:33:35;97273.88;;;7.83;38.40
56894;BME280;43392;50.078;13.704;2023-04-06T11:36:03;97270.53;;;7.71;38.67
56894;BME280;43392;50.078;13.704;2023-04-06T11:38:30;97262.47;;;7.66;38.86
56894;BME280;43392;50.078;13.704;2023-04-06T11:40:57;97258.63;;;7.57;39.00
56894;BME280;43392;50.078;13.704;2023-04-06T11:43:27;97263.66;;;7.54;39.08
56894;BME280;43392;50.078;13.704;2023-04-06T11:45:59;97257.13;;;7.66;39.18
56894;BME280;43392;50.078;13.704;2023-04-06T11:48:26;97254.91;;;7.58;39.38
56894;BME280;43392;50.078;13.704;2023-04-06T11:50:55;97251.13;;;7.54;39.50
56894;BME280;43392;50.078;13.704;2023-04-06T11:53:24;97251.38;;;7.74;39.12
56894;BME280;43392;50.078;13.704;2023-04-06T11:55:51;97254.53;;;7.71;39.22
56894;BME280;43392;50.078;13.704;2023-04-06T11:58:17;97249.66;;;7.90;39.01
56894;BME280;43392;50.078;13.704;2023-04-06T12:00:44;97242.06;;;8.03;38.87
56894;BME280;43392;50.078;13.704;2023-04-06T12:03:11;97243.56;;;8.21;38.54
56894;BME280;43392;50.078;13.704;2023-04-06T12:05:38;97243.69;;;8.31;38.65
56894;BME280;43392;50.078;13.704;2023-04-06T12:08:05;97235.72;;;8.36;37.65
56894;BME280;43392;50.078;13.704;2023-04-06T12:10:33;97227.19;;;8.39;38.36
56894;BME280;43392;50.078;13.704;2023-04-06T12:12:59;97233.94;;;8.47;37.89
56894;BME280;43392;50.078;13.704;2023-04-06T12:15:26;97227.00;;;8.51;37.81
56894;BME280;43392;50.078;13.704;2023-04-06T12:17:53;97224.94;;;8.58;37.69
56894;BME280;43392;50.078;13.704;2023-04-06T12:20:19;97221.25;;;8.64;37.45
56894;BME280;43392;50.078;13.704;2023-04-06T12:22:46;97222.06;;;8.64;37.13
56894;BME280;43392;50.078;13.704;2023-04-06T12:25:12;97220.75;;;8.67;37.00
56894;BME280;43392;50.078;13.704;2023-04-06T12:27:40;97215.41;;;8.67;36.98
56894;BME280;43392;50.078;13.704;2023-04-06T12:30:08;97213.81;;;8.71;37.59
56894;BME280;43392;50.078;13.704;2023-04-06T12:32:35;97212.09;;;8.60;35.97
56894;BME280;43392;50.078;13.704;2023-04-06T12:35:01;97221.28;;;8.69;37.24
56894;BME280;43392;50.078;13.704;2023-04-06T12:37:28;97214.44;;;8.83;38.18
56894;BME280;43392;50.078;13.704;2023-04-06T12:39:54;97217.88;;;8.79;38.35
56894;BME280;43392;50.078;13.704;2023-04-06T12:42:21;97206.75;;;8.97;36.86
56894;BME280;43392;50.078;13.704;2023-04-06T12:44:49;97208.59;;;8.96;36.30
56894;BME280;43392;50.078;13.704;2023-04-06T12:47:16;97203.50;;;8.90;37.44
56894;BME280;43392;50.078;13.704;2023-04-06T12:49:43;97209.66;;;8.90;36.34
56894;BME280;43392;50.078;13.704;2023-04-06T12:52:10;97201.28;;;8.77;36.40
56894;BME280;43392;50.078;13.704;2023-04-06T12:54:37;97191.56;;;8.65;35.88
56894;BME280;43392;50.078;13.704;2023-04-06T12:57:03;97192.19;;;8.41;36.04
56894;BME280;43392;50.078;13.704;2023-04-06T12:59:30;97201.53;;;8.12;35.68